sensor_id;sensor_type;location;lat;lon;timestamp;temperature;humidity
32296;DHT22;18781;51.550;5.418;2023-02-28T00:00:16;3.70;55.00
32296;DHT22;18781;51.550;5.418;2023-02-28T00:02:43;3.70;55.00
32296;DHT22;18781;51.550;5.418;2023-02-28T00:05:10;3.70;55.00
32296;DHT22;18781;51.550;5.418;2023-02-28T00:07:36;3.70;55.10
32296;DHT22;18781;51.550;5.418;2023-02-28T00:10:04;3.70;55.10
32296;DHT22;18781;51.550;5.418;2023-02-28T00:12:31;3.60;55.30
32296;DHT22;18781;51.550;5.418;2023-02-28T00:14:57;3.60;55.30
32296;DHT22;18781;51.550;5.418;2023-02-28T00:17:23;3.60;55.30
32296;DHT22;18781;51.550;5.418;2023-02-28T00:19:49;3.60;55.20
32296;DHT22;18781;51.550;5.418;2023-02-28T00:22:20;3.60;55.20
32296;DHT22;18781;51.550;5.418;2023-02-28T00:24:46;3.60;55.40
32296;DHT22;18781;51.550;5.418;2023-02-28T00:27:13;3.60;55.90
32296;DHT22;18781;51.550;5.418;2023-02-28T00:29:39;3.60;55.30
32296;DHT22;18781;51.550;5.418;2023-02-28T00:32:05;3.60;55.40
32296;DHT22;18781;51.550;5.418;2023-02-28T00:34:31;3.60;55.50
32296;DHT22;18781;51.550;5.418;2023-02-28T00:37:07;3.60;55.40
32296;DHT22;18781;51.550;5.418;2023-02-28T00:39:37;3.50;55.50
32296;DHT22;18781;51.550;5.418;2023-02-28T00:42:03;3.50;55.60
32296;DHT22;18781;51.550;5.418;2023-02-28T00:44:30;3.50;55.40
32296;DHT22;18781;51.550;5.418;2023-02-28T00:46:56;3.50;55.50
32296;DHT22;18781;51.550;5.418;2023-02-28T00:49:22;3.50;55.50
32296;DHT22;18781;51.550;5.418;2023-02-28T00:51:49;3.50;55.60
32296;DHT22;18781;51.550;5.418;2023-02-28T00:54:15;3.50;55.60
32296;DHT22;18781;51.550;5.418;2023-02-28T00:56:41;3.50;55.70
32296;DHT22;18781;51.550;5.418;2023-02-28T00:59:07;3.50;55.70
32296;DHT22;18781;51.550;5.418;2023-02-28T01:01:33;3.50;55.90
32296;DHT22;18781;51.550;5.418;2023-02-28T01:03:58;3.50;55.90
32296;DHT22;18781;51.550;5.418;2023-02-28T01:06:24;3.50;55.90
32296;DHT22;18781;51.550;5.418;2023-02-28T01:08:49;3.50;56.00
32296;DHT22;18781;51.550;5.418;2023-02-28T01:11:17;3.50;55.80
32296;DHT22;18781;51.550;5.418;2023-02-28T01:13:43;3.40;55.80
32296;DHT22;18781;51.550;5.418;2023-02-28T01:16:09;3.40;55.90
32296;DHT22;18781;51.550;5.418;2023-02-28T01:18:35;3.50;56.00
32296;DHT22;18781;51.550;5.418;2023-02-28T01:21:06;3.40;55.90
32296;DHT22;18781;51.550;5.418;2023-02-28T01:23:32;3.40;56.30
32296;DHT22;18781;51.550;5.418;2023-02-28T01:26:04;3.40;56.10
32296;DHT22;18781;51.550;5.418;2023-02-28T01:28:29;3.40;56.60
32296;DHT22;18781;51.550;5.418;2023-02-28T01:30:55;3.40;56.40
32296;DHT22;18781;51.550;5.418;2023-02-28T01:33:21;3.40;56.40
32296;DHT22;18781;51.550;5.418;2023-02-28T01:35:46;3.40;56.50
32296;DHT22;18781;51.550;5.418;2023-02-28T01:38:12;3.40;56.50
32296;DHT22;18781;51.550;5.418;2023-02-28T01:40:37;3.40;56.50
32296;DHT22;18781;51.550;5.418;2023-02-28T01:43:10;3.40;56.40
32296;DHT22;18781;51.550;5.418;2023-02-28T01:45:44;3.30;56.50
32296;DHT22;18781;51.550;5.418;2023-02-28T01:48:09;3.30;56.40
32296;DHT22;18781;51.550;5.418;2023-02-28T01:50:39;3.30;56.50
32296;DHT22;18781;51.550;5.418;2023-02-28T01:53:08;3.30;56.80
32296;DHT22;18781;51.550;5.418;2023-02-28T01:55:35;3.30;56.70
32296;DHT22;18781;51.550;5.418;2023-02-28T01:58:04;3.30;56.80
32296;DHT22;18781;51.550;5.418;2023-02-28T02:00:31;3.30;56.90
32296;DHT22;18781;51.550;5.418;2023-02-28T02:02:59;3.20;56.80
32296;DHT22;18781;51.550;5.418;2023-02-28T02:05:28;3.20;57.00
32296;DHT22;18781;51.550;5.418;2023-02-28T02:08:08;3.20;57.00
32296;DHT22;18781;51.550;5.418;2023-02-28T02:10:39;3.20;57.00
32296;DHT22;18781;51.550;5.418;2023-02-28T02:19:00;3.20;57.50
32296;DHT22;18781;51.550;5.418;2023-02-28T02:25:04;3.10;58.20
32296;DHT22;18781;51.550;5.418;2023-02-28T02:30:20;3.10;58.20
32296;DHT22;18781;51.550;5.418;2023-02-28T02:32:59;3.10;57.30
32296;DHT22;18781;51.550;5.418;2023-02-28T02:35:46;3.00;57.50
32296;DHT22;18781;51.550;5.418;2023-02-28T02:39:13;3.10;58.10
32296;DHT22;18781;51.550;5.418;2023-02-28T02:43:53;3.10;57.80
32296;DHT22;18781;51.550;5.418;2023-02-28T02:46:26;3.10;58.00
32296;DHT22;18781;51.550;5.418;2023-02-28T02:48:55;3.10;58.00
32296;DHT22;18781;51.550;5.418;2023-02-28T02:51:23;3.10;57.70
32296;DHT22;18781;51.550;5.418;2023-02-28T02:53:56;3.10;57.80
32296;DHT22;18781;51.550;5.418;2023-02-28T02:56:28;3.10;58.30
32296;DHT22;18781;51.550;5.418;2023-02-28T02:58:57;3.10;58.00
32296;DHT22;18781;51.550;5.418;2023-02-28T03:01:26;3.10;58.00
32296;DHT22;18781;51.550;5.418;2023-02-28T03:04:03;3.20;58.20
32296;DHT22;18781;51.550;5.418;2023-02-28T03:06:29;3.20;58.30
32296;DHT22;18781;51.550;5.418;2023-02-28T03:08:55;3.20;57.90
32296;DHT22;18781;51.550;5.418;2023-02-28T03:11:20;3.20;57.90
32296;DHT22;18781;51.550;5.418;2023-02-28T03:14:04;3.20;57.90
32296;DHT22;18781;51.550;5.418;2023-02-28T03:16:54;3.20;58.50
32296;DHT22;18781;51.550;5.418;2023-02-28T03:24:41;3.30;58.20
32296;DHT22;18781;51.550;5.418;2023-02-28T03:30:06;3.30;58.40
32296;DHT22;18781;51.550;5.418;2023-02-28T03:33:02;3.30;58.40
32296;DHT22;18781;51.550;5.418;2023-02-28T03:35:37;3.30;58.20
32296;DHT22;18781;51.550;5.418;2023-02-28T03:38:14;3.30;58.00
32296;DHT22;18781;51.550;5.418;2023-02-28T03:40:44;3.40;58.00
32296;DHT22;18781;51.550;5.418;2023-02-28T03:43:17;3.40;58.00
32296;DHT22;18781;51.550;5.418;2023-02-28T03:45:44;3.40;58.00
32296;DHT22;18781;51.550;5.418;2023-02-28T03:48:25;3.40;58.40
32296;DHT22;18781;51.550;5.418;2023-02-28T03:50:55;3.50;58.10
32296;DHT22;18781;51.550;5.418;2023-02-28T03:53:33;3.50;58.00
32296;DHT22;18781;51.550;5.418;2023-02-28T03:56:17;3.50;58.10
32296;DHT22;18781;51.550;5.418;2023-02-28T03:59:07;3.50;58.00
32296;DHT22;18781;51.550;5.418;2023-02-28T04:01:47;3.60;58.40
32296;DHT22;18781;51.550;5.418;2023-02-28T04:04:13;3.60;57.90
32296;DHT22;18781;51.550;5.418;2023-02-28T04:06:40;3.60;57.80
32296;DHT22;18781;51.550;5.418;2023-02-28T04:09:07;3.70;57.80
32296;DHT22;18781;51.550;5.418;2023-02-28T04:11:45;3.70;57.80
32296;DHT22;18781;51.550;5.418;2023-02-28T04:14:12;3.70;58.20
32296;DHT22;18781;51.550;5.418;2023-02-28T04:16:40;3.70;57.80
32296;DHT22;18781;51.550;5.418;2023-02-28T04:19:08;3.70;57.90
32296;DHT22;18781;51.550;5.418;2023-02-28T04:21:45;3.80;57.90
32296;DHT22;18781;51.550;5.418;2023-02-28T04:24:13;3.80;58.00
32296;DHT22;18781;51.550;5.418;2023-02-28T04:26:41;3.80;57.70
32296;DHT22;18781;51.550;5.418;2023-02-28T04:29:09;3.90;57.70
32296;DHT22;18781;51.550;5.418;2023-02-28T04:31:34;3.90;58.30
32296;DHT22;18781;51.550;5.418;2023-02-28T04:34:01;3.90;57.50
32296;DHT22;18781;51.550;5.418;2023-02-28T04:36:27;3.90;57.70
32296;DHT22;18781;51.550;5.418;2023-02-28T04:38:52;3.90;57.60
32296;DHT22;18781;51.550;5.418;2023-02-28T04:41:18;3.90;57.60
32296;DHT22;18781;51.550;5.418;2023-02-28T04:43:44;4.00;57.70
32296;DHT22;18781;51.550;5.418;2023-02-28T04:46:10;4.00;57.70
32296;DHT22;18781;51.550;5.418;2023-02-28T04:48:38;4.00;57.70
32296;DHT22;18781;51.550;5.418;2023-02-28T04:51:07;4.00;57.70
32296;DHT22;18781;51.550;5.418;2023-02-28T04:53:33;4.10;57.80
32296;DHT22;18781;51.550;5.418;2023-02-28T04:55:59;4.10;57.70
32296;DHT22;18781;51.550;5.418;2023-02-28T04:58:25;4.10;57.70
32296;DHT22;18781;51.550;5.418;2023-02-28T05:00:54;4.10;57.70
32296;DHT22;18781;51.550;5.418;2023-02-28T05:03:26;4.20;57.80
32296;DHT22;18781;51.550;5.418;2023-02-28T05:05:51;4.20;57.50
32296;DHT22;18781;51.550;5.418;2023-02-28T05:08:17;4.20;57.50
32296;DHT22;18781;51.550;5.418;2023-02-28T05:10:42;4.20;57.60
32296;DHT22;18781;51.550;5.418;2023-02-28T05:13:11;4.20;57.60
32296;DHT22;18781;51.550;5.418;2023-02-28T05:15:37;4.20;57.70
32296;DHT22;18781;51.550;5.418;2023-02-28T05:18:02;4.20;57.60
32296;DHT22;18781;51.550;5.418;2023-02-28T05:20:28;4.20;57.60
32296;DHT22;18781;51.550;5.418;2023-02-28T05:22:54;4.30;57.70
32296;DHT22;18781;51.550;5.418;2023-02-28T05:25:21;4.30;57.70
32296;DHT22;18781;51.550;5.418;2023-02-28T05:27:48;4.30;57.70
32296;DHT22;18781;51.550;5.418;2023-02-28T05:30:13;4.30;57.80
32296;DHT22;18781;51.550;5.418;2023-02-28T05:32:40;4.30;57.80
32296;DHT22;18781;51.550;5.418;2023-02-28T05:35:09;4.30;57.80
32296;DHT22;18781;51.550;5.418;2023-02-28T05:37:34;4.30;58.00
32296;DHT22;18781;51.550;5.418;2023-02-28T05:40:00;4.30;57.70
32296;DHT22;18781;51.550;5.418;2023-02-28T05:42:26;4.30;57.80
32296;DHT22;18781;51.550;5.418;2023-02-28T05:44:52;4.30;57.90
32296;DHT22;18781;51.550;5.418;2023-02-28T05:47:17;4.30;58.00
32296;DHT22;18781;51.550;5.418;2023-02-28T05:49:43;4.30;58.00
32296;DHT22;18781;51.550;5.418;2023-02-28T05:52:08;4.30;58.00
32296;DHT22;18781;51.550;5.418;2023-02-28T05:54:34;4.30;57.90
32296;DHT22;18781;51.550;5.418;2023-02-28T05:57:00;4.30;57.90
32296;DHT22;18781;51.550;5.418;2023-02-28T05:59:25;4.30;57.90
32296;DHT22;18781;51.550;5.418;2023-02-28T06:01:51;4.30;58.00
32296;DHT22;18781;51.550;5.418;2023-02-28T06:04:19;4.30;57.90
32296;DHT22;18781;51.550;5.418;2023-02-28T06:06:49;4.30;58.00
32296;DHT22;18781;51.550;5.418;2023-02-28T06:09:15;4.30;58.10
32296;DHT22;18781;51.550;5.418;2023-02-28T06:11:41;4.20;58.00
32296;DHT22;18781;51.550;5.418;2023-02-28T06:14:07;4.30;58.10
32296;DHT22;18781;51.550;5.418;2023-02-28T06:16:35;4.30;58.00
32296;DHT22;18781;51.550;5.418;2023-02-28T06:19:03;4.30;58.00
32296;DHT22;18781;51.550;5.418;2023-02-28T06:21:29;4.30;58.10
32296;DHT22;18781;51.550;5.418;2023-02-28T06:23:56;4.30;58.00
32296;DHT22;18781;51.550;5.418;2023-02-28T06:26:21;4.30;57.90
32296;DHT22;18781;51.550;5.418;2023-02-28T06:28:47;4.30;57.90
32296;DHT22;18781;51.550;5.418;2023-02-28T06:31:15;4.30;57.90
32296;DHT22;18781;51.550;5.418;2023-02-28T06:33:42;4.30;58.00
32296;DHT22;18781;51.550;5.418;2023-02-28T06:36:09;4.30;57.90
32296;DHT22;18781;51.550;5.418;2023-02-28T06:38:35;4.30;57.90
32296;DHT22;18781;51.550;5.418;2023-02-28T06:41:02;4.30;57.90
32296;DHT22;18781;51.550;5.418;2023-02-28T06:43:30;4.30;57.90
32296;DHT22;18781;51.550;5.418;2023-02-28T06:45:57;4.30;58.00
32296;DHT22;18781;51.550;5.418;2023-02-28T06:48:24;4.30;58.00
32296;DHT22;18781;51.550;5.418;2023-02-28T06:50:50;4.30;57.90
32296;DHT22;18781;51.550;5.418;2023-02-28T06:53:15;4.30;58.00
32296;DHT22;18781;51.550;5.418;2023-02-28T06:55:41;4.30;58.00
32296;DHT22;18781;51.550;5.418;2023-02-28T06:58:07;4.30;58.10
32296;DHT22;18781;51.550;5.418;2023-02-28T07:00:45;4.40;58.20
32296;DHT22;18781;51.550;5.418;2023-02-28T07:03:12;4.30;58.00
32296;DHT22;18781;51.550;5.418;2023-02-28T07:05:39;4.40;58.20
32296;DHT22;18781;51.550;5.418;2023-02-28T07:08:05;4.40;58.10
32296;DHT22;18781;51.550;5.418;2023-02-28T07:10:32;4.30;58.10
32296;DHT22;18781;51.550;5.418;2023-02-28T07:12:58;4.40;58.20
32296;DHT22;18781;51.550;5.418;2023-02-28T07:15:24;4.40;58.20
32296;DHT22;18781;51.550;5.418;2023-02-28T07:17:49;4.40;58.10
32296;DHT22;18781;51.550;5.418;2023-02-28T07:20:15;4.40;58.00
32296;DHT22;18781;51.550;5.418;2023-02-28T07:22:41;4.40;58.00
32296;DHT22;18781;51.550;5.418;2023-02-28T07:25:07;4.40;57.90
32296;DHT22;18781;51.550;5.418;2023-02-28T07:27:33;4.40;57.90
32296;DHT22;18781;51.550;5.418;2023-02-28T07:29:59;4.40;57.80
32296;DHT22;18781;51.550;5.418;2023-02-28T07:32:27;4.40;57.80
32296;DHT22;18781;51.550;5.418;2023-02-28T07:34:53;4.40;57.80
32296;DHT22;18781;51.550;5.418;2023-02-28T07:37:19;4.40;57.70
32296;DHT22;18781;51.550;5.418;2023-02-28T07:39:44;4.50;57.60
32296;DHT22;18781;51.550;5.418;2023-02-28T07:42:10;4.50;57.50
32296;DHT22;18781;51.550;5.418;2023-02-28T07:44:38;4.50;57.40
32296;DHT22;18781;51.550;5.418;2023-02-28T07:47:07;4.50;57.30
32296;DHT22;18781;51.550;5.418;2023-02-28T07:49:33;4.50;57.10
32296;DHT22;18781;51.550;5.418;2023-02-28T07:51:59;4.50;57.10
32296;DHT22;18781;51.550;5.418;2023-02-28T07:54:25;4.50;57.00
32296;DHT22;18781;51.550;5.418;2023-02-28T07:56:50;4.50;56.80
32296;DHT22;18781;51.550;5.418;2023-02-28T07:59:16;4.60;56.70
32296;DHT22;18781;51.550;5.418;2023-02-28T08:01:41;4.60;56.60
32296;DHT22;18781;51.550;5.418;2023-02-28T08:04:09;4.60;56.70
32296;DHT22;18781;51.550;5.418;2023-02-28T08:06:35;4.60;56.70
32296;DHT22;18781;51.550;5.418;2023-02-28T08:09:01;4.70;56.40
32296;DHT22;18781;51.550;5.418;2023-02-28T08:11:26;4.70;56.10
32296;DHT22;18781;51.550;5.418;2023-02-28T08:13:52;4.80;56.20
32296;DHT22;18781;51.550;5.418;2023-02-28T08:16:18;4.90;55.80
32296;DHT22;18781;51.550;5.418;2023-02-28T08:18:50;4.90;56.00
32296;DHT22;18781;51.550;5.418;2023-02-28T08:21:16;5.00;55.30
32296;DHT22;18781;51.550;5.418;2023-02-28T08:23:42;5.10;55.30
32296;DHT22;18781;51.550;5.418;2023-02-28T08:26:08;5.10;54.80
32296;DHT22;18781;51.550;5.418;2023-02-28T08:28:33;5.20;54.60
32296;DHT22;18781;51.550;5.418;2023-02-28T08:30:59;5.20;53.10
32296;DHT22;18781;51.550;5.418;2023-02-28T08:33:25;5.30;53.10
32296;DHT22;18781;51.550;5.418;2023-02-28T08:35:55;5.30;52.90
32296;DHT22;18781;51.550;5.418;2023-02-28T08:38:21;5.40;52.70
32296;DHT22;18781;51.550;5.418;2023-02-28T08:40:46;5.50;53.90
32296;DHT22;18781;51.550;5.418;2023-02-28T08:43:12;5.50;52.80
32296;DHT22;18781;51.550;5.418;2023-02-28T08:45:37;5.50;52.60
32296;DHT22;18781;51.550;5.418;2023-02-28T08:48:03;5.50;52.10
32296;DHT22;18781;51.550;5.418;2023-02-28T08:50:29;5.60;51.50
32296;DHT22;18781;51.550;5.418;2023-02-28T08:52:55;5.60;51.80
32296;DHT22;18781;51.550;5.418;2023-02-28T08:55:20;5.70;51.70
32296;DHT22;18781;51.550;5.418;2023-02-28T08:57:46;5.70;51.30
32296;DHT22;18781;51.550;5.418;2023-02-28T09:00:12;5.80;51.10
32296;DHT22;18781;51.550;5.418;2023-02-28T09:02:39;5.80;50.60
32296;DHT22;18781;51.550;5.418;2023-02-28T09:05:05;5.80;50.90
32296;DHT22;18781;51.550;5.418;2023-02-28T09:07:30;5.90;50.90
32296;DHT22;18781;51.550;5.418;2023-02-28T09:09:56;5.90;50.60
32296;DHT22;18781;51.550;5.418;2023-02-28T09:12:26;5.90;50.20
32296;DHT22;18781;51.550;5.418;2023-02-28T09:14:53;6.00;49.80
32296;DHT22;18781;51.550;5.418;2023-02-28T09:17:19;6.10;49.10
32296;DHT22;18781;51.550;5.418;2023-02-28T09:19:47;6.10;48.60
32296;DHT22;18781;51.550;5.418;2023-02-28T09:22:12;6.10;48.00
32296;DHT22;18781;51.550;5.418;2023-02-28T09:24:38;6.20;47.90
32296;DHT22;18781;51.550;5.418;2023-02-28T09:27:05;6.20;46.10
32296;DHT22;18781;51.550;5.418;2023-02-28T09:29:32;6.20;45.70
32296;DHT22;18781;51.550;5.418;2023-02-28T09:31:58;6.30;44.90
32296;DHT22;18781;51.550;5.418;2023-02-28T09:34:25;6.30;44.90
32296;DHT22;18781;51.550;5.418;2023-02-28T09:36:51;6.30;44.10
32296;DHT22;18781;51.550;5.418;2023-02-28T09:39:21;6.30;44.00
32296;DHT22;18781;51.550;5.418;2023-02-28T09:41:50;6.40;43.40
32296;DHT22;18781;51.550;5.418;2023-02-28T09:44:38;6.40;44.70
32296;DHT22;18781;51.550;5.418;2023-02-28T09:47:31;6.40;44.60
32296;DHT22;18781;51.550;5.418;2023-02-28T09:50:06;6.40;44.80
32296;DHT22;18781;51.550;5.418;2023-02-28T09:52:37;6.40;43.00
32296;DHT22;18781;51.550;5.418;2023-02-28T09:55:38;6.50;43.50
32296;DHT22;18781;51.550;5.418;2023-02-28T09:58:05;6.50;44.00
32296;DHT22;18781;51.550;5.418;2023-02-28T10:00:34;6.50;44.30
32296;DHT22;18781;51.550;5.418;2023-02-28T10:05:41;6.60;44.10
32296;DHT22;18781;51.550;5.418;2023-02-28T10:08:43;6.60;44.30
32296;DHT22;18781;51.550;5.418;2023-02-28T10:11:15;6.60;44.90
32296;DHT22;18781;51.550;5.418;2023-02-28T10:13:52;6.60;44.50
32296;DHT22;18781;51.550;5.418;2023-02-28T10:16:25;6.70;44.10
32296;DHT22;18781;51.550;5.418;2023-02-28T10:19:01;6.70;42.80
32296;DHT22;18781;51.550;5.418;2023-02-28T10:21:42;6.80;43.70
32296;DHT22;18781;51.550;5.418;2023-02-28T10:24:30;6.80;43.60
32296;DHT22;18781;51.550;5.418;2023-02-28T10:29:36;6.90;42.60
32296;DHT22;18781;51.550;5.418;2023-02-28T10:32:03;6.90;42.60
32296;DHT22;18781;51.550;5.418;2023-02-28T10:34:29;7.00;41.30
32296;DHT22;18781;51.550;5.418;2023-02-28T10:36:55;7.00;41.90
32296;DHT22;18781;51.550;5.418;2023-02-28T10:42:05;7.10;41.20
32296;DHT22;18781;51.550;5.418;2023-02-28T10:44:43;7.20;40.20
32296;DHT22;18781;51.550;5.418;2023-02-28T10:47:15;7.20;39.50
32296;DHT22;18781;51.550;5.418;2023-02-28T10:49:48;7.30;39.50
32296;DHT22;18781;51.550;5.418;2023-02-28T10:52:36;7.20;39.50
32296;DHT22;18781;51.550;5.418;2023-02-28T10:55:35;7.30;39.60
32296;DHT22;18781;51.550;5.418;2023-02-28T10:58:01;7.30;40.80
32296;DHT22;18781;51.550;5.418;2023-02-28T11:00:33;7.30;40.90
32296;DHT22;18781;51.550;5.418;2023-02-28T11:03:00;7.30;40.20
32296;DHT22;18781;51.550;5.418;2023-02-28T11:05:33;7.30;39.50
32296;DHT22;18781;51.550;5.418;2023-02-28T11:08:12;7.30;40.70
32296;DHT22;18781;51.550;5.418;2023-02-28T11:10:39;7.40;40.80
32296;DHT22;18781;51.550;5.418;2023-02-28T11:13:05;7.40;39.20
32296;DHT22;18781;51.550;5.418;2023-02-28T11:15:33;7.50;39.00
32296;DHT22;18781;51.550;5.418;2023-02-28T11:20:49;7.50;40.20
32296;DHT22;18781;51.550;5.418;2023-02-28T11:23:16;7.50;40.30
32296;DHT22;18781;51.550;5.418;2023-02-28T11:25:57;7.60;40.40
32296;DHT22;18781;51.550;5.418;2023-02-28T11:28:31;7.60;40.30
32296;DHT22;18781;51.550;5.418;2023-02-28T11:31:16;7.60;40.50
32296;DHT22;18781;51.550;5.418;2023-02-28T11:33:50;7.60;40.20
32296;DHT22;18781;51.550;5.418;2023-02-28T11:39:01;7.70;40.40
32296;DHT22;18781;51.550;5.418;2023-02-28T11:47:06;7.80;39.20
32296;DHT22;18781;51.550;5.418;2023-02-28T11:52:20;7.80;40.10
32296;DHT22;18781;51.550;5.418;2023-02-28T11:55:06;7.80;40.00
32296;DHT22;18781;51.550;5.418;2023-02-28T12:03:27;7.90;40.90
32296;DHT22;18781;51.550;5.418;2023-02-28T12:08:47;8.00;39.40
32296;DHT22;18781;51.550;5.418;2023-02-28T12:11:25;8.10;40.20
32296;DHT22;18781;51.550;5.418;2023-02-28T12:16:59;8.20;39.40
32296;DHT22;18781;51.550;5.418;2023-02-28T12:19:53;8.20;38.70
32296;DHT22;18781;51.550;5.418;2023-02-28T12:22:55;8.30;38.90
32296;DHT22;18781;51.550;5.418;2023-02-28T12:25:43;8.30;39.30
32296;DHT22;18781;51.550;5.418;2023-02-28T12:28:16;8.30;39.30
32296;DHT22;18781;51.550;5.418;2023-02-28T12:30:58;8.30;38.60
32296;DHT22;18781;51.550;5.418;2023-02-28T12:33:31;8.30;38.70
32296;DHT22;18781;51.550;5.418;2023-02-28T12:36:04;8.30;38.40
32296;DHT22;18781;51.550;5.418;2023-02-28T12:38:38;8.30;38.10
32296;DHT22;18781;51.550;5.418;2023-02-28T12:41:12;8.40;37.90
32296;DHT22;18781;51.550;5.418;2023-02-28T12:43:48;8.40;38.60
32296;DHT22;18781;51.550;5.418;2023-02-28T12:46:20;8.40;39.00
32296;DHT22;18781;51.550;5.418;2023-02-28T12:48:53;8.50;39.50
32296;DHT22;18781;51.550;5.418;2023-02-28T12:51:23;8.50;39.00
32296;DHT22;18781;51.550;5.418;2023-02-28T12:54:21;8.50;39.50
32296;DHT22;18781;51.550;5.418;2023-02-28T12:59:48;8.60;38.50
32296;DHT22;18781;51.550;5.418;2023-02-28T13:11:07;8.80;38.80
32296;DHT22;18781;51.550;5.418;2023-02-28T13:13:33;8.80;37.90
32296;DHT22;18781;51.550;5.418;2023-02-28T13:16:00;8.80;39.00
32296;DHT22;18781;51.550;5.418;2023-02-28T13:18:42;8.80;39.30
32296;DHT22;18781;51.550;5.418;2023-02-28T13:21:23;8.90;39.00
32296;DHT22;18781;51.550;5.418;2023-02-28T13:26:21;8.90;37.10
32296;DHT22;18781;51.550;5.418;2023-02-28T13:29:41;9.00;37.30
32296;DHT22;18781;51.550;5.418;2023-02-28T13:34:38;9.00;38.70
32296;DHT22;18781;51.550;5.418;2023-02-28T13:39:57;9.10;38.40
32296;DHT22;18781;51.550;5.418;2023-02-28T13:47:33;9.10;36.50
32296;DHT22;18781;51.550;5.418;2023-02-28T13:50:20;9.10;37.70
32296;DHT22;18781;51.550;5.418;2023-02-28T13:56:03;9.20;37.90
32296;DHT22;18781;51.550;5.418;2023-02-28T14:01:39;9.20;37.80
32296;DHT22;18781;51.550;5.418;2023-02-28T14:06:40;9.20;37.30
32296;DHT22;18781;51.550;5.418;2023-02-28T14:09:23;9.20;37.80
32296;DHT22;18781;51.550;5.418;2023-02-28T14:11:50;9.30;37.40
32296;DHT22;18781;51.550;5.418;2023-02-28T14:17:02;9.30;37.80
32296;DHT22;18781;51.550;5.418;2023-02-28T14:19:30;9.30;37.40
32296;DHT22;18781;51.550;5.418;2023-02-28T14:33:31;9.40;36.80
32296;DHT22;18781;51.550;5.418;2023-02-28T14:41:31;9.40;36.90
32296;DHT22;18781;51.550;5.418;2023-02-28T14:44:01;9.40;37.20
32296;DHT22;18781;51.550;5.418;2023-02-28T14:46:37;9.30;36.80
32296;DHT22;18781;51.550;5.418;2023-02-28T14:49:04;9.40;37.00
32296;DHT22;18781;51.550;5.418;2023-02-28T14:51:30;9.40;36.10
32296;DHT22;18781;51.550;5.418;2023-02-28T14:53:59;9.40;36.10
32296;DHT22;18781;51.550;5.418;2023-02-28T14:56:37;9.40;36.60
32296;DHT22;18781;51.550;5.418;2023-02-28T14:59:05;9.40;36.50
32296;DHT22;18781;51.550;5.418;2023-02-28T15:01:31;9.30;36.70
32296;DHT22;18781;51.550;5.418;2023-02-28T15:04:03;9.30;36.90
32296;DHT22;18781;51.550;5.418;2023-02-28T15:06:29;9.30;36.80
32296;DHT22;18781;51.550;5.418;2023-02-28T15:09:10;9.30;37.80
32296;DHT22;18781;51.550;5.418;2023-02-28T15:11:37;9.30;36.80
32296;DHT22;18781;51.550;5.418;2023-02-28T15:14:04;9.30;36.80
32296;DHT22;18781;51.550;5.418;2023-02-28T15:16:39;9.30;37.20
32296;DHT22;18781;51.550;5.418;2023-02-28T15:19:25;9.30;37.00
32296;DHT22;18781;51.550;5.418;2023-02-28T15:22:14;9.30;36.90
32296;DHT22;18781;51.550;5.418;2023-02-28T15:24:43;9.30;37.10
32296;DHT22;18781;51.550;5.418;2023-02-28T15:27:15;9.30;37.90
32296;DHT22;18781;51.550;5.418;2023-02-28T15:29:46;9.30;37.10
32296;DHT22;18781;51.550;5.418;2023-02-28T15:32:36;9.20;36.30
32296;DHT22;18781;51.550;5.418;2023-02-28T15:35:27;9.30;36.70
32296;DHT22;18781;51.550;5.418;2023-02-28T15:37:56;9.30;36.60
32296;DHT22;18781;51.550;5.418;2023-02-28T15:40:58;9.20;36.20
32296;DHT22;18781;51.550;5.418;2023-02-28T15:43:32;9.20;36.70
32296;DHT22;18781;51.550;5.418;2023-02-28T15:46:01;9.20;36.30
32296;DHT22;18781;51.550;5.418;2023-02-28T15:53:32;9.10;37.10
32296;DHT22;18781;51.550;5.418;2023-02-28T15:56:03;9.10;37.40
32296;DHT22;18781;51.550;5.418;2023-02-28T15:58:30;9.10;37.20
32296;DHT22;18781;51.550;5.418;2023-02-28T16:01:08;9.10;38.10
32296;DHT22;18781;51.550;5.418;2023-02-28T16:03:48;9.10;37.40
32296;DHT22;18781;51.550;5.418;2023-02-28T16:08:48;9.00;36.80
32296;DHT22;18781;51.550;5.418;2023-02-28T16:11:16;9.00;37.10
32296;DHT22;18781;51.550;5.418;2023-02-28T16:13:42;9.00;37.30
32296;DHT22;18781;51.550;5.418;2023-02-28T16:16:08;9.00;37.50
32296;DHT22;18781;51.550;5.418;2023-02-28T16:18:39;9.00;37.20
32296;DHT22;18781;51.550;5.418;2023-02-28T16:21:05;9.00;37.50
32296;DHT22;18781;51.550;5.418;2023-02-28T16:23:30;8.90;37.30
32296;DHT22;18781;51.550;5.418;2023-02-28T16:25:56;8.90;37.30
32296;DHT22;18781;51.550;5.418;2023-02-28T16:28:27;8.90;37.50
32296;DHT22;18781;51.550;5.418;2023-02-28T16:30:56;8.90;37.60
32296;DHT22;18781;51.550;5.418;2023-02-28T16:33:22;8.90;37.80
32296;DHT22;18781;51.550;5.418;2023-02-28T16:35:48;8.80;37.50
32296;DHT22;18781;51.550;5.418;2023-02-28T16:38:13;8.80;37.60
32296;DHT22;18781;51.550;5.418;2023-02-28T16:40:39;8.80;37.50
32296;DHT22;18781;51.550;5.418;2023-02-28T16:43:07;8.80;37.60
32296;DHT22;18781;51.550;5.418;2023-02-28T16:45:36;8.70;37.50
32296;DHT22;18781;51.550;5.418;2023-02-28T16:48:02;8.70;37.80
32296;DHT22;18781;51.550;5.418;2023-02-28T16:50:30;8.70;37.60
32296;DHT22;18781;51.550;5.418;2023-02-28T16:52:57;8.70;37.80
32296;DHT22;18781;51.550;5.418;2023-02-28T16:55:25;8.70;37.80
32296;DHT22;18781;51.550;5.418;2023-02-28T16:57:57;8.70;38.00
32296;DHT22;18781;51.550;5.418;2023-02-28T17:00:23;8.60;38.10
32296;DHT22;18781;51.550;5.418;2023-02-28T17:02:49;8.60;38.20
32296;DHT22;18781;51.550;5.418;2023-02-28T17:05:14;8.50;38.20
32296;DHT22;18781;51.550;5.418;2023-02-28T17:07:41;8.50;38.30
32296;DHT22;18781;51.550;5.418;2023-02-28T17:10:16;8.50;38.50
32296;DHT22;18781;51.550;5.418;2023-02-28T17:12:42;8.50;38.70
32296;DHT22;18781;51.550;5.418;2023-02-28T17:15:09;8.40;38.70
32296;DHT22;18781;51.550;5.418;2023-02-28T17:17:35;8.40;38.70
32296;DHT22;18781;51.550;5.418;2023-02-28T17:20:02;8.30;38.80
32296;DHT22;18781;51.550;5.418;2023-02-28T17:22:28;8.30;38.90
32296;DHT22;18781;51.550;5.418;2023-02-28T17:24:53;8.30;39.00
32296;DHT22;18781;51.550;5.418;2023-02-28T17:27:22;8.20;38.90
32296;DHT22;18781;51.550;5.418;2023-02-28T17:29:48;8.20;39.00
32296;DHT22;18781;51.550;5.418;2023-02-28T17:32:14;8.20;39.10
32296;DHT22;18781;51.550;5.418;2023-02-28T17:34:39;8.10;39.10
32296;DHT22;18781;51.550;5.418;2023-02-28T17:37:05;8.10;39.20
32296;DHT22;18781;51.550;5.418;2023-02-28T17:39:31;8.10;39.20
32296;DHT22;18781;51.550;5.418;2023-02-28T17:41:56;8.00;39.30
32296;DHT22;18781;51.550;5.418;2023-02-28T17:44:23;8.00;39.30
32296;DHT22;18781;51.550;5.418;2023-02-28T17:46:50;7.90;39.30
32296;DHT22;18781;51.550;5.418;2023-02-28T17:49:18;7.90;39.30
32296;DHT22;18781;51.550;5.418;2023-02-28T17:51:44;7.90;39.40
32296;DHT22;18781;51.550;5.418;2023-02-28T17:54:10;7.80;39.40
32296;DHT22;18781;51.550;5.418;2023-02-28T17:56:35;7.80;39.50
32296;DHT22;18781;51.550;5.418;2023-02-28T17:59:01;7.70;39.70